Time;durP1;ratioP1;P1;durP2;ratioP2;P2;SDS_P1;SDS_P2;PMS_P1;PMS_P2;Temp;Humidity;BMP_temperature;BMP_pressure;BME280_temperature;BME280_humidity;BME280_pressure;Samples;Min_cycle;Max_cycle;Signal;HPM_P1;HPM_P2
2022/09/26 00:00:47;;;;;;;5.30;4.10;;;;;;;;;;5013485;28;20532;-79
2022/09/26 00:03:13;;;;;;;5.87;3.40;;;;;;;;;;5012652;28;20674;-79
2022/09/26 00:05:39;;;;;;;5.00;3.60;;;;;;;;;;4996139;28;20295;-79
2022/09/26 00:08:05;;;;;;;4.70;3.30;;;;;;;;;;4996038;28;20253;-79
2022/09/26 00:10:32;;;;;;;4.33;3.00;;;;;;;;;;4996131;28;20182;-79
2022/09/26 00:12:58;;;;;;;3.73;2.90;;;;;;;;;;4996556;28;20183;-79
2022/09/26 00:15:24;;;;;;;4.27;3.40;;;;;;;;;;5013592;28;20521;-79
2022/09/26 00:17:50;;;;;;;3.33;3.03;;;;;;;;;;4996183;28;20707;-78
2022/09/26 00:20:16;;;;;;;5.70;3.30;;;;;;;;;;5011841;28;20186;-79
2022/09/26 00:22:42;;;;;;;4.10;3.10;;;;;;;;;;4996142;28;20208;-79
2022/09/26 00:25:09;;;;;;;4.90;3.20;;;;;;;;;;4996099;28;20734;-79
2022/09/26 00:27:35;;;;;;;3.80;3.10;;;;;;;;;;4996209;28;20225;-79
2022/09/26 00:30:01;;;;;;;3.53;2.70;;;;;;;;;;4995964;28;20224;-79
2022/09/26 00:32:27;;;;;;;4.20;3.20;;;;;;;;;;4996244;28;20186;-79
2022/09/26 00:34:53;;;;;;;4.83;3.60;;;;;;;;;;5012260;28;20301;-79
2022/09/26 00:37:19;;;;;;;3.57;2.90;;;;;;;;;;4995577;28;20249;-79
2022/09/26 00:39:45;;;;;;;4.63;3.37;;;;;;;;;;4996170;28;20228;-79
2022/09/26 00:42:15;;;;;;;3.73;3.23;;;;;;;;;;4996174;28;20555;-79
2022/09/26 00:44:47;;;;;;;5.77;3.50;;;;;;;;;;5012451;28;20175;-79
2022/09/26 00:47:31;;;;;;;3.40;3.10;;;;;;;;;;5012133;28;20210;-79
2022/09/26 00:50:00;;;;;;;4.33;3.10;;;;;;;;;;5012144;28;20178;-79
2022/09/26 00:52:30;;;;;;;3.87;2.97;;;;;;;;;;5012210;28;20333;-79
2022/09/26 00:54:58;;;;;;;5.20;3.10;;;;;;;;;;5012229;28;20304;-79
2022/09/26 00:57:28;;;;;;;5.03;3.23;;;;;;;;;;5012241;28;20205;-79
2022/09/26 00:59:57;;;;;;;3.23;2.90;;;;;;;;;;5012358;28;20171;-78
2022/09/26 01:02:26;;;;;;;3.77;3.00;;;;;;;;;;5012155;28;20179;-79
2022/09/26 01:04:53;;;;;;;3.93;3.13;;;;;;;;;;5013574;28;20175;-79
2022/09/26 01:07:20;;;;;;;5.77;3.23;;;;;;;;;;4995735;28;20226;-79
2022/09/26 01:09:47;;;;;;;4.10;3.13;;;;;;;;;;4995830;28;20206;-79
2022/09/26 01:12:13;;;;;;;3.70;2.77;;;;;;;;;;5012283;28;20194;-79
2022/09/26 01:14:40;;;;;;;3.27;2.80;;;;;;;;;;5011882;28;20182;-79
2022/09/26 01:17:07;;;;;;;3.20;2.70;;;;;;;;;;4995559;28;20186;-79
2022/09/26 01:19:54;;;;;;;4.53;2.93;;;;;;;;;;5011789;28;20544;-79
2022/09/26 01:22:48;;;;;;;3.73;2.77;;;;;;;;;;5001234;28;20195;-79
2022/09/26 01:25:19;;;;;;;3.30;3.00;;;;;;;;;;5013052;28;20213;-79
2022/09/26 01:28:04;;;;;;;3.10;2.80;;;;;;;;;;5011516;28;20221;-79
2022/09/26 01:30:56;;;;;;;3.07;2.70;;;;;;;;;;5012064;28;20201;-79
2022/09/26 01:33:23;;;;;;;3.13;2.63;;;;;;;;;;5014082;28;20183;-79
2022/09/26 01:36:15;;;;;;;5.53;2.57;;;;;;;;;;5015368;28;20179;-79
2022/09/26 01:38:48;;;;;;;3.37;2.40;;;;;;;;;;5014444;28;20233;-79
2022/09/26 01:41:33;;;;;;;3.07;2.50;;;;;;;;;;5015246;28;20175;-79
2022/09/26 01:43:59;;;;;;;3.57;2.73;;;;;;;;;;5014710;28;20186;-79
2022/09/26 01:46:44;;;;;;;3.27;2.63;;;;;;;;;;5014843;28;20245;-79
2022/09/26 01:49:17;;;;;;;5.77;2.90;;;;;;;;;;5014717;28;20205;-79
2022/09/26 01:52:02;;;;;;;5.50;3.30;;;;;;;;;;5015026;28;20545;-78
2022/09/26 01:54:41;;;;;;;4.07;3.37;;;;;;;;;;5014861;28;20230;-79
2022/09/26 01:57:11;;;;;;;4.23;3.30;;;;;;;;;;5014643;28;20551;-78
2022/09/26 01:59:40;;;;;;;4.80;3.30;;;;;;;;;;5014394;28;20182;-78
2022/09/26 02:02:09;;;;;;;3.97;3.40;;;;;;;;;;5014892;28;20178;-78
2022/09/26 02:04:38;;;;;;;3.70;3.20;;;;;;;;;;5014442;28;20257;-79
2022/09/26 02:07:08;;;;;;;4.23;3.83;;;;;;;;;;4998185;28;20207;-79
2022/09/26 02:09:39;;;;;;;6.57;4.53;;;;;;;;;;5014364;28;20186;-79
2022/09/26 02:12:06;;;;;;;5.83;3.80;;;;;;;;;;5014461;28;20175;-78
2022/09/26 02:14:34;;;;;;;8.33;5.60;;;;;;;;;;4998585;28;20547;-79
2022/09/26 02:17:05;;;;;;;7.90;5.80;;;;;;;;;;5014277;28;20186;-79
2022/09/26 02:19:35;;;;;;;7.00;5.50;;;;;;;;;;5014015;28;20178;-78
2022/09/26 02:22:02;;;;;;;8.17;5.80;;;;;;;;;;5015400;28;20177;-79
2022/09/26 02:24:28;;;;;;;6.30;5.53;;;;;;;;;;5014213;28;20183;-79
2022/09/26 02:26:54;;;;;;;5.77;5.13;;;;;;;;;;5013927;28;20207;-79
2022/09/26 02:29:21;;;;;;;6.53;5.10;;;;;;;;;;5013912;28;20215;-79
2022/09/26 02:31:58;;;;;;;9.10;5.27;;;;;;;;;;4997976;28;20190;-79
2022/09/26 02:34:24;;;;;;;8.03;4.60;;;;;;;;;;5014280;28;20182;-79
2022/09/26 02:36:50;;;;;;;6.83;4.97;;;;;;;;;;4997589;28;20570;-79
2022/09/26 02:39:16;;;;;;;7.10;4.93;;;;;;;;;;4997302;28;20210;-79
2022/09/26 02:41:46;;;;;;;8.63;5.40;;;;;;;;;;4997726;28;20189;-79
2022/09/26 02:44:24;;;;;;;6.37;5.33;;;;;;;;;;5013678;28;20563;-79
2022/09/26 02:46:59;;;;;;;7.37;5.57;;;;;;;;;;5013774;28;20216;-79
2022/09/26 02:49:48;;;;;;;9.30;6.13;;;;;;;;;;5015026;28;20655;-78
2022/09/26 02:52:27;;;;;;;7.83;6.30;;;;;;;;;;5013838;28;20179;-79
2022/09/26 02:55:11;;;;;;;8.73;6.20;;;;;;;;;;5013551;28;20312;-78
2022/09/26 02:57:45;;;;;;;7.93;6.33;;;;;;;;;;5013646;28;20202;-79
2022/09/26 03:00:16;;;;;;;9.73;6.50;;;;;;;;;;5013802;28;20186;-79
2022/09/26 03:02:47;;;;;;;8.90;6.60;;;;;;;;;;5014012;28;20168;-79
2022/09/26 03:05:21;;;;;;;8.80;6.50;;;;;;;;;;5013555;28;20181;-78
2022/09/26 03:07:50;;;;;;;9.20;6.60;;;;;;;;;;5013487;28;20198;-78
2022/09/26 03:10:17;;;;;;;8.87;6.50;;;;;;;;;;5013007;28;20183;-79
2022/09/26 03:12:43;;;;;;;9.63;7.07;;;;;;;;;;5013371;28;20193;-79
2022/09/26 03:15:10;;;;;;;9.87;6.70;;;;;;;;;;5013402;28;20177;-79
2022/09/26 03:17:37;;;;;;;9.43;6.87;;;;;;;;;;5013118;28;20597;-79
2022/09/26 03:20:09;;;;;;;12.20;6.87;;;;;;;;;;5012966;28;20528;-78
2022/09/26 03:22:36;;;;;;;10.67;7.13;;;;;;;;;;5013430;28;20176;-79
2022/09/26 03:25:02;;;;;;;10.37;7.27;;;;;;;;;;5013191;28;20204;-79
2022/09/26 03:27:30;;;;;;;10.80;7.67;;;;;;;;;;5012862;28;20218;-79
2022/09/26 03:29:58;;;;;;;9.43;7.37;;;;;;;;;;4996740;28;20180;-79
2022/09/26 03:32:24;;;;;;;9.50;7.20;;;;;;;;;;5012832;28;20179;-79
2022/09/26 03:34:50;;;;;;;10.93;7.97;;;;;;;;;;5014337;28;20636;-79
2022/09/26 03:37:16;;;;;;;11.17;7.60;;;;;;;;;;5012577;28;20180;-79
2022/09/26 03:39:43;;;;;;;10.40;7.43;;;;;;;;;;5012451;28;20186;-79
2022/09/26 03:42:09;;;;;;;10.83;8.10;;;;;;;;;;4996745;28;20186;-79
2022/09/26 03:44:35;;;;;;;11.20;7.77;;;;;;;;;;4996337;28;20196;-79
2022/09/26 03:47:02;;;;;;;8.47;7.07;;;;;;;;;;4996289;28;20204;-78
2022/09/26 03:49:28;;;;;;;9.60;6.90;;;;;;;;;;5013861;28;20172;-78
2022/09/26 03:51:54;;;;;;;11.77;7.60;;;;;;;;;;4996695;28;20273;-79
2022/09/26 03:54:20;;;;;;;9.50;7.30;;;;;;;;;;5012083;28;20181;-79
2022/09/26 03:56:46;;;;;;;9.60;7.30;;;;;;;;;;5012799;28;20281;-79
2022/09/26 03:59:12;;;;;;;9.67;7.47;;;;;;;;;;4995894;28;20209;-79
2022/09/26 04:01:38;;;;;;;11.23;7.57;;;;;;;;;;4996280;28;20198;-79
2022/09/26 04:04:04;;;;;;;10.93;7.87;;;;;;;;;;4996662;28;20240;-79
2022/09/26 04:06:30;;;;;;;10.23;7.57;;;;;;;;;;5012591;28;20220;-79
2022/09/26 04:08:56;;;;;;;10.90;8.07;;;;;;;;;;4995880;28;20205;-79
2022/09/26 04:11:23;;;;;;;12.67;8.30;;;;;;;;;;5012660;28;20232;-79
2022/09/26 04:13:50;;;;;;;10.70;8.43;;;;;;;;;;4996293;28;20182;-79
2022/09/26 04:16:16;;;;;;;12.20;8.10;;;;;;;;;;5012370;28;20197;-79
2022/09/26 04:18:42;;;;;;;12.53;8.03;;;;;;;;;;5012210;28;20205;-79
2022/09/26 04:21:09;;;;;;;11.77;8.07;;;;;;;;;;4996439;28;20183;-79
2022/09/26 04:23:36;;;;;;;10.70;7.77;;;;;;;;;;5012392;28;20178;-79
2022/09/26 04:26:03;;;;;;;12.30;8.90;;;;;;;;;;4996153;28;20205;-79
2022/09/26 04:28:29;;;;;;;11.77;8.00;;;;;;;;;;5026765;23;20225;-78
2022/09/26 04:31:01;;;;;;;11.10;8.33;;;;;;;;;;4991951;28;20189;-78
2022/09/26 04:33:29;;;;;;;11.23;8.67;;;;;;;;;;5008649;28;20178;-79
2022/09/26 04:35:58;;;;;;;12.53;7.90;;;;;;;;;;5008346;28;20180;-79
2022/09/26 04:38:32;;;;;;;11.27;8.10;;;;;;;;;;4998911;28;20202;-79
2022/09/26 04:41:02;;;;;;;11.13;8.37;;;;;;;;;;4957046;28;20602;-78
2022/09/26 04:43:28;;;;;;;14.27;9.17;;;;;;;;;;4972738;28;20176;-78
2022/09/26 04:45:54;;;;;;;10.23;8.40;;;;;;;;;;4956325;28;20237;-79
2022/09/26 04:48:20;;;;;;;12.80;9.07;;;;;;;;;;4972282;28;20224;-78
2022/09/26 04:50:47;;;;;;;13.70;8.83;;;;;;;;;;4956248;28;20192;-79
2022/09/26 04:53:13;;;;;;;13.33;8.60;;;;;;;;;;4972417;28;20184;-79
2022/09/26 04:55:43;;;;;;;12.60;8.90;;;;;;;;;;4972484;28;20179;-78
2022/09/26 04:58:09;;;;;;;12.97;9.07;;;;;;;;;;4972124;28;20206;-79
2022/09/26 05:00:35;;;;;;;14.30;9.13;;;;;;;;;;4972048;28;20701;-79
2022/09/26 05:03:01;;;;;;;12.87;9.20;;;;;;;;;;4956298;28;20192;-79
2022/09/26 05:05:30;;;;;;;12.40;9.13;;;;;;;;;;4957807;28;20190;-78
2022/09/26 05:07:56;;;;;;;11.93;8.73;;;;;;;;;;4975733;28;20205;-78
2022/09/26 05:10:22;;;;;;;11.60;8.90;;;;;;;;;;4959566;28;20678;-78
2022/09/26 05:12:49;;;;;;;13.00;9.30;;;;;;;;;;4960116;28;20185;-78
2022/09/26 05:15:15;;;;;;;13.63;9.23;;;;;;;;;;4960040;28;20179;-78
2022/09/26 05:17:43;;;;;;;13.70;9.70;;;;;;;;;;4975549;28;20253;-79
2022/09/26 05:20:09;;;;;;;12.80;9.03;;;;;;;;;;4960014;28;20653;-78
2022/09/26 05:22:36;;;;;;;12.27;9.27;;;;;;;;;;4975592;28;20200;-78
2022/09/26 05:27:48;;;;;;;14.27;9.77;;;;;;;;;;4977061;28;20266;-79
2022/09/26 05:30:14;;;;;;;11.80;9.13;;;;;;;;;;4975356;28;20242;-79
2022/09/26 05:32:44;;;;;;;12.97;10.03;;;;;;;;;;4959583;28;20176;-79
2022/09/26 05:35:11;;;;;;;14.33;9.80;;;;;;;;;;4975479;28;20261;-78
2022/09/26 05:37:37;;;;;;;13.80;10.00;;;;;;;;;;4959120;28;20278;-79
2022/09/26 05:42:47;;;;;;;13.23;9.13;;;;;;;;;;4975701;28;20198;-79
2022/09/26 05:45:14;;;;;;;11.90;9.37;;;;;;;;;;4959276;28;20191;-79
2022/09/26 05:47:40;;;;;;;12.20;9.83;;;;;;;;;;4958962;28;20296;-79
2022/09/26 05:50:09;;;;;;;15.10;9.43;;;;;;;;;;4975078;28;20190;-79
2022/09/26 05:52:35;;;;;;;14.47;9.33;;;;;;;;;;4959248;28;20741;-79
2022/09/26 05:55:01;;;;;;;14.73;9.10;;;;;;;;;;4958922;28;20178;-79
2022/09/26 05:57:27;;;;;;;13.43;9.10;;;;;;;;;;4959130;28;20679;-79
2022/09/26 05:59:53;;;;;;;11.87;8.97;;;;;;;;;;4974913;28;20189;-79
2022/09/26 06:02:19;;;;;;;12.00;9.00;;;;;;;;;;4958906;28;20175;-78
2022/09/26 06:04:45;;;;;;;13.20;8.70;;;;;;;;;;4974895;28;20265;-79
2022/09/26 06:07:12;;;;;;;13.43;9.07;;;;;;;;;;4958717;28;20216;-78
2022/09/26 06:09:38;;;;;;;11.70;8.77;;;;;;;;;;4974693;28;20273;-78
2022/09/26 06:12:04;;;;;;;13.10;9.13;;;;;;;;;;4958759;28;20544;-79
2022/09/26 06:14:30;;;;;;;12.33;8.73;;;;;;;;;;4958699;28;20192;-79
2022/09/26 06:16:57;;;;;;;11.07;9.00;;;;;;;;;;4973180;28;20192;-79
2022/09/26 06:19:22;;;;;;;14.30;9.10;;;;;;;;;;4976495;28;20202;-78
2022/09/26 06:21:49;;;;;;;12.77;8.73;;;;;;;;;;4959204;28;20192;-79
2022/09/26 06:24:15;;;;;;;12.80;9.10;;;;;;;;;;4959171;28;20596;-79
2022/09/26 06:26:41;;;;;;;13.50;9.53;;;;;;;;;;4974782;28;20696;-79
2022/09/26 06:29:09;;;;;;;14.20;9.53;;;;;;;;;;4974990;28;20239;-79
2022/09/26 06:31:35;;;;;;;12.33;9.30;;;;;;;;;;4958812;28;20195;-79
2022/09/26 06:34:02;;;;;;;11.77;8.90;;;;;;;;;;4958935;28;20185;-79
2022/09/26 06:36:27;;;;;;;13.03;9.17;;;;;;;;;;4958766;28;20183;-79
2022/09/26 06:39:10;;;;;;;13.07;8.90;;;;;;;;;;4958335;28;20231;-79
2022/09/26 06:41:36;;;;;;;12.47;8.93;;;;;;;;;;4958851;28;20559;-79
2022/09/26 06:44:03;;;;;;;13.47;9.13;;;;;;;;;;4958849;28;20182;-79
2022/09/26 06:46:30;;;;;;;11.97;9.53;;;;;;;;;;4958455;28;20309;-79
2022/09/26 06:48:56;;;;;;;11.73;8.50;;;;;;;;;;4974697;28;20217;-78
2022/09/26 06:51:23;;;;;;;11.57;9.00;;;;;;;;;;4958776;28;20235;-79
2022/09/26 06:53:49;;;;;;;11.70;8.17;;;;;;;;;;4958477;28;20189;-79
2022/09/26 06:56:15;;;;;;;12.70;8.83;;;;;;;;;;4958434;28;20278;-79
2022/09/26 06:58:41;;;;;;;10.30;7.87;;;;;;;;;;4974439;28;20674;-79
2022/09/26 07:01:07;;;;;;;11.17;8.23;;;;;;;;;;4958144;28;20192;-79
2022/09/26 07:03:33;;;;;;;10.53;8.13;;;;;;;;;;4974184;28;20179;-79
2022/09/26 07:05:59;;;;;;;11.37;7.53;;;;;;;;;;4975328;28;20194;-79
2022/09/26 07:08:25;;;;;;;9.67;7.13;;;;;;;;;;4957961;28;20226;-79
2022/09/26 07:10:52;;;;;;;11.53;7.60;;;;;;;;;;4975319;28;20178;-78
2022/09/26 07:13:18;;;;;;;12.07;7.80;;;;;;;;;;4975283;28;20225;-79
2022/09/26 07:15:45;;;;;;;9.37;7.57;;;;;;;;;;4958284;28;20675;-79
2022/09/26 07:18:11;;;;;;;9.13;6.90;;;;;;;;;;4974026;28;20681;-79
2022/09/26 07:20:44;;;;;;;10.07;7.17;;;;;;;;;;4957957;28;20192;-79
2022/09/26 07:23:10;;;;;;;11.63;6.83;;;;;;;;;;4974284;28;20582;-79
2022/09/26 07:25:38;;;;;;;9.87;6.80;;;;;;;;;;4973955;28;20183;-79
2022/09/26 07:28:04;;;;;;;12.40;7.23;;;;;;;;;;4973290;28;20230;-79
2022/09/26 07:30:30;;;;;;;8.17;6.77;;;;;;;;;;4957159;28;20268;-79
2022/09/26 07:33:02;;;;;;;10.13;6.87;;;;;;;;;;4973610;28;20211;-79
2022/09/26 07:35:28;;;;;;;9.80;6.83;;;;;;;;;;4958272;28;20583;-79
2022/09/26 07:38:09;;;;;;;9.70;6.47;;;;;;;;;;4973380;28;20258;-79
2022/09/26 07:40:35;;;;;;;9.23;7.10;;;;;;;;;;4973427;28;20178;-79
2022/09/26 07:43:01;;;;;;;8.70;7.07;;;;;;;;;;4973489;28;20169;-79
2022/09/26 07:50:58;;;;;;;8.97;5.70;;;;;;;;;;4973929;28;20262;-79
2022/09/26 07:53:25;;;;;;;7.17;5.73;;;;;;;;;;4973322;28;20345;-79
2022/09/26 07:56:10;;;;;;;8.37;5.57;;;;;;;;;;4973343;28;20183;-79
2022/09/26 07:58:42;;;;;;;6.97;5.13;;;;;;;;;;4973567;28;20312;-79
2022/09/26 08:01:10;;;;;;;7.67;5.83;;;;;;;;;;4973123;28;20639;-79
2022/09/26 08:03:43;;;;;;;7.43;5.13;;;;;;;;;;4973442;28;20643;-79
2022/09/26 08:06:18;;;;;;;7.10;5.03;;;;;;;;;;4973315;28;20211;-79
2022/09/26 08:08:46;;;;;;;7.90;4.80;;;;;;;;;;4974267;28;20191;-78
2022/09/26 08:11:16;;;;;;;5.93;5.10;;;;;;;;;;4973633;28;20558;-79
2022/09/26 08:13:42;;;;;;;8.40;5.33;;;;;;;;;;4974267;28;20239;-79
2022/09/26 08:16:08;;;;;;;7.80;4.90;;;;;;;;;;4957345;28;20184;-79
2022/09/26 08:18:34;;;;;;;6.70;5.00;;;;;;;;;;4973084;28;20208;-79
2022/09/26 08:21:06;;;;;;;5.97;4.80;;;;;;;;;;4957450;28;20184;-79
2022/09/26 08:23:33;;;;;;;6.93;4.80;;;;;;;;;;4957201;28;20215;-79
2022/09/26 08:26:02;;;;;;;6.87;4.40;;;;;;;;;;4973071;28;20204;-79
2022/09/26 08:28:28;;;;;;;6.93;4.90;;;;;;;;;;4972958;28;20216;-79
2022/09/26 08:30:56;;;;;;;6.87;4.67;;;;;;;;;;4957090;28;20189;-79
2022/09/26 08:33:23;;;;;;;6.90;4.17;;;;;;;;;;4957318;28;20192;-79
2022/09/26 08:35:49;;;;;;;5.03;4.40;;;;;;;;;;4972942;28;20177;-79
2022/09/26 08:38:32;;;;;;;6.33;4.37;;;;;;;;;;4956836;28;20261;-79
2022/09/26 08:41:21;;;;;;;5.33;4.10;;;;;;;;;;4975384;28;20250;-79
2022/09/26 08:43:52;;;;;;;6.07;4.00;;;;;;;;;;4976974;28;20184;-79
2022/09/26 08:46:36;;;;;;;6.40;3.87;;;;;;;;;;4976674;28;20255;-79
2022/09/26 08:49:17;;;;;;;6.73;4.13;;;;;;;;;;4977928;28;20246;-78
2022/09/26 08:51:45;;;;;;;4.97;4.27;;;;;;;;;;4977118;28;20171;-79
2022/09/26 08:54:20;;;;;;;5.90;3.77;;;;;;;;;;4976922;28;20231;-78
2022/09/26 08:56:52;;;;;;;5.07;3.80;;;;;;;;;;4960856;28;20614;-79
2022/09/26 08:59:31;;;;;;;6.53;3.40;;;;;;;;;;4976317;28;20197;-79
2022/09/26 09:02:00;;;;;;;4.37;3.40;;;;;;;;;;4976560;28;20180;-78
2022/09/26 09:04:33;;;;;;;4.60;3.17;;;;;;;;;;4976763;28;20180;-79
2022/09/26 09:07:03;;;;;;;5.77;3.20;;;;;;;;;;4976501;28;20200;-79
2022/09/26 09:09:29;;;;;;;3.43;2.90;;;;;;;;;;4976310;28;20209;-79
2022/09/26 09:11:58;;;;;;;6.53;3.20;;;;;;;;;;4977589;28;20183;-79
2022/09/26 09:14:30;;;;;;;3.20;2.60;;;;;;;;;;4977101;28;20184;-79
2022/09/26 09:17:15;;;;;;;3.37;2.37;;;;;;;;;;4977464;28;20191;-79
2022/09/26 09:19:47;;;;;;;4.27;2.50;;;;;;;;;;4976261;28;20200;-79
2022/09/26 09:22:45;;;;;;;2.70;2.50;;;;;;;;;;4977609;28;20180;-79
2022/09/26 09:25:17;;;;;;;2.30;2.10;;;;;;;;;;4944390;28;20195;-79
2022/09/26 09:28:02;;;;;;;3.70;2.50;;;;;;;;;;4976269;28;20222;-79
2022/09/26 09:30:37;;;;;;;4.87;2.40;;;;;;;;;;4976095;28;20187;-79
2022/09/26 09:33:09;;;;;;;5.00;2.47;;;;;;;;;;4975741;28;20183;-79
2022/09/26 09:35:38;;;;;;;3.57;2.40;;;;;;;;;;4975802;28;20191;-79
2022/09/26 09:38:27;;;;;;;6.10;2.23;;;;;;;;;;4975713;28;20196;-79
2022/09/26 09:40:56;;;;;;;2.60;2.40;;;;;;;;;;4976113;28;20165;-79
2022/09/26 09:43:27;;;;;;;4.43;2.30;;;;;;;;;;4976091;28;20180;-79
2022/09/26 09:45:55;;;;;;;3.37;2.03;;;;;;;;;;4975865;28;20256;-79
2022/09/26 09:48:21;;;;;;;4.70;2.17;;;;;;;;;;4975840;28;20199;-79
2022/09/26 09:51:13;;;;;;;3.37;2.00;;;;;;;;;;4959540;28;20185;-79
2022/09/26 09:53:45;;;;;;;2.30;1.90;;;;;;;;;;4972717;28;20647;-79
2022/09/26 09:56:14;;;;;;;3.10;2.10;;;;;;;;;;4975817;28;20164;-79
2022/09/26 09:58:46;;;;;;;5.43;2.10;;;;;;;;;;4975630;28;20254;-79
2022/09/26 10:01:24;;;;;;;3.53;2.03;;;;;;;;;;4977361;28;20168;-79
2022/09/26 10:04:09;;;;;;;4.20;1.87;;;;;;;;;;4975419;28;20646;-79
2022/09/26 10:06:35;;;;;;;2.37;1.50;;;;;;;;;;4976475;28;20207;-79
2022/09/26 10:09:09;;;;;;;2.23;1.57;;;;;;;;;;4959674;28;20669;-78
2022/09/26 10:11:40;;;;;;;2.50;1.70;;;;;;;;;;4975738;28;20177;-79
2022/09/26 10:14:08;;;;;;;2.40;1.27;;;;;;;;;;4975253;28;20178;-79
2022/09/26 10:16:34;;;;;;;2.63;1.30;;;;;;;;;;4976412;28;20180;-79
2022/09/26 10:19:02;;;;;;;2.57;1.60;;;;;;;;;;4959539;28;20291;-79
2022/09/26 10:21:42;;;;;;;3.07;1.60;;;;;;;;;;4976495;28;20226;-79
2022/09/26 10:24:22;;;;;;;4.47;1.90;;;;;;;;;;4976108;28;20161;-79
2022/09/26 10:26:49;;;;;;;2.00;1.80;;;;;;;;;;4974979;28;20736;-79
2022/09/26 10:29:18;;;;;;;4.40;1.70;;;;;;;;;;4998304;23;20582;-81
2022/09/26 10:31:47;;;;;;;5.03;1.80;;;;;;;;;;4974701;28;20199;-81
2022/09/26 10:34:24;;;;;;;3.10;1.73;;;;;;;;;;4959212;28;20202;-80
2022/09/26 10:36:50;;;;;;;3.83;1.70;;;;;;;;;;4974696;28;20190;-80
2022/09/26 10:42:01;;;;;;;2.77;1.50;;;;;;;;;;4975737;28;20236;-79
2022/09/26 10:44:32;;;;;;;2.13;1.50;;;;;;;;;;4974551;28;20182;-79
2022/09/26 10:47:07;;;;;;;1.77;1.60;;;;;;;;;;4974440;28;20302;-79
2022/09/26 10:49:38;;;;;;;2.23;1.50;;;;;;;;;;4975417;28;20218;-79
2022/09/26 10:52:11;;;;;;;2.17;1.60;;;;;;;;;;4974525;28;20172;-79
2022/09/26 10:54:40;;;;;;;2.73;1.70;;;;;;;;;;4974014;28;20177;-79
2022/09/26 10:57:08;;;;;;;3.73;1.67;;;;;;;;;;4975599;28;20243;-79
2022/09/26 10:59:38;;;;;;;4.07;1.90;;;;;;;;;;4974577;28;20231;-79
2022/09/26 11:02:05;;;;;;;2.20;1.57;;;;;;;;;;4974492;28;20176;-79
2022/09/26 11:07:23;;;;;;;4.53;1.70;;;;;;;;;;4974463;28;20222;-80
2022/09/26 11:09:50;;;;;;;2.83;1.70;;;;;;;;;;4973521;28;20215;-80
2022/09/26 11:12:24;;;;;;;3.80;1.70;;;;;;;;;;4958020;28;20295;-80
2022/09/26 11:14:52;;;;;;;2.67;1.50;;;;;;;;;;4974037;28;20238;-79
2022/09/26 11:17:18;;;;;;;3.40;1.43;;;;;;;;;;4958029;28;20203;-79
2022/09/26 11:19:52;;;;;;;1.93;1.60;;;;;;;;;;4973888;28;20267;-79
2022/09/26 11:22:24;;;;;;;3.20;1.63;;;;;;;;;;4973865;28;20184;-79
2022/09/26 11:25:10;;;;;;;3.63;1.70;;;;;;;;;;4973924;28;20177;-79
2022/09/26 11:27:42;;;;;;;2.90;1.40;;;;;;;;;;4973941;28;20219;-80
2022/09/26 11:30:13;;;;;;;2.20;1.20;;;;;;;;;;4973612;28;20231;-80
2022/09/26 11:32:54;;;;;;;2.63;1.40;;;;;;;;;;4957659;28;20215;-80
2022/09/26 11:35:33;;;;;;;2.00;1.30;;;;;;;;;;4973744;28;20204;-79
2022/09/26 11:38:04;;;;;;;2.70;1.43;;;;;;;;;;4973308;28;20172;-79
2022/09/26 11:40:48;;;;;;;1.53;1.30;;;;;;;;;;4973721;28;20243;-79
2022/09/26 11:43:30;;;;;;;1.90;1.37;;;;;;;;;;4973744;28;20172;-79
2022/09/26 11:46:22;;;;;;;2.87;1.17;;;;;;;;;;4973744;28;20244;-79
2022/09/26 11:49:09;;;;;;;2.07;1.50;;;;;;;;;;4973695;28;20196;-79
2022/09/26 11:51:39;;;;;;;2.53;1.40;;;;;;;;;;4973620;28;20204;-80
2022/09/26 11:54:23;;;;;;;2.03;1.33;;;;;;;;;;4973253;28;20180;-80
2022/09/26 11:56:57;;;;;;;1.63;1.40;;;;;;;;;;4973496;28;20214;-80
2022/09/26 11:59:30;;;;;;;2.33;1.50;;;;;;;;;;4973143;28;20196;-80
2022/09/26 12:02:07;;;;;;;3.47;1.50;;;;;;;;;;4972727;28;20675;-80
2022/09/26 12:04:53;;;;;;;2.27;1.50;;;;;;;;;;4972933;28;20180;-80
2022/09/26 12:07:31;;;;;;;2.23;1.40;;;;;;;;;;4972886;28;20230;-80
2022/09/26 12:10:16;;;;;;;2.03;1.40;;;;;;;;;;4972744;28;20286;-80
2022/09/26 12:12:45;;;;;;;1.37;1.27;;;;;;;;;;4973118;28;20238;-80
2022/09/26 12:15:20;;;;;;;2.57;1.30;;;;;;;;;;4972031;28;20203;-80
2022/09/26 12:18:05;;;;;;;2.30;1.60;;;;;;;;;;4973250;28;20180;-80
2022/09/26 12:20:41;;;;;;;2.83;1.50;;;;;;;;;;4972790;28;20199;-80
2022/09/26 12:23:15;;;;;;;3.00;1.70;;;;;;;;;;4972335;28;20179;-80
2022/09/26 12:25:41;;;;;;;2.23;1.60;;;;;;;;;;4972405;28;20718;-80
2022/09/26 12:28:08;;;;;;;1.63;1.53;;;;;;;;;;4972414;28;20218;-80
2022/09/26 12:30:39;;;;;;;3.47;1.53;;;;;;;;;;4972413;28;20643;-80
2022/09/26 12:33:20;;;;;;;2.57;1.43;;;;;;;;;;4972674;28;20176;-80
2022/09/26 12:36:09;;;;;;;2.80;1.80;;;;;;;;;;4973104;28;20186;-80
2022/09/26 12:38:56;;;;;;;1.83;1.60;;;;;;;;;;4965990;28;20657;-80
2022/09/26 12:41:23;;;;;;;2.80;1.67;;;;;;;;;;4945372;28;20281;-80
2022/09/26 12:43:55;;;;;;;2.00;1.80;;;;;;;;;;4973323;28;20200;-80
2022/09/26 12:46:24;;;;;;;3.07;1.70;;;;;;;;;;4973640;28;20216;-80
2022/09/26 12:49:03;;;;;;;2.40;1.80;;;;;;;;;;4973292;28;20199;-80
2022/09/26 12:51:29;;;;;;;2.43;1.63;;;;;;;;;;4973027;28;20180;-80
2022/09/26 12:53:55;;;;;;;3.97;1.67;;;;;;;;;;4973209;28;20183;-80
2022/09/26 12:56:32;;;;;;;3.33;2.07;;;;;;;;;;4974702;28;20542;-80
2022/09/26 12:59:03;;;;;;;4.70;1.60;;;;;;;;;;4974177;28;20207;-80
2022/09/26 13:01:48;;;;;;;3.20;1.73;;;;;;;;;;4973985;28;20234;-80
2022/09/26 13:04:33;;;;;;;2.80;1.83;;;;;;;;;;4973600;28;20741;-80
2022/09/26 13:07:15;;;;;;;4.27;1.73;;;;;;;;;;4973004;28;20204;-80
2022/09/26 13:10:00;;;;;;;2.70;1.80;;;;;;;;;;4972795;28;20207;-80
2022/09/26 13:12:29;;;;;;;2.90;1.80;;;;;;;;;;4973009;28;20677;-80
2022/09/26 13:15:16;;;;;;;3.73;1.90;;;;;;;;;;4973079;28;20176;-80
2022/09/26 13:17:44;;;;;;;2.30;2.10;;;;;;;;;;4973079;28;20275;-80
2022/09/26 13:20:19;;;;;;;2.50;1.97;;;;;;;;;;4972967;28;20345;-80
2022/09/26 13:22:47;;;;;;;2.53;1.87;;;;;;;;;;4973052;28;20187;-80
2022/09/26 13:25:19;;;;;;;2.77;1.87;;;;;;;;;;4973097;28;20231;-80
2022/09/26 13:28:05;;;;;;;4.10;2.10;;;;;;;;;;4976068;28;20212;-80
2022/09/26 13:30:34;;;;;;;2.30;1.90;;;;;;;;;;4976443;28;20176;-80
2022/09/26 13:33:13;;;;;;;2.77;2.10;;;;;;;;;;4976339;28;20180;-80
2022/09/26 13:35:46;;;;;;;3.53;2.60;;;;;;;;;;4976131;28;20176;-80
2022/09/26 13:38:15;;;;;;;4.80;2.40;;;;;;;;;;4976182;28;20207;-80
2022/09/26 13:40:41;;;;;;;2.87;1.90;;;;;;;;;;4975839;28;20187;-80
2022/09/26 13:43:07;;;;;;;2.60;1.77;;;;;;;;;;4976002;28;20173;-80
2022/09/26 13:45:39;;;;;;;5.87;2.10;;;;;;;;;;4975856;28;20187;-80
2022/09/26 13:48:15;;;;;;;2.10;1.90;;;;;;;;;;4976114;28;20343;-80
2022/09/26 13:50:46;;;;;;;3.80;1.73;;;;;;;;;;4975592;28;20658;-80
2022/09/26 13:53:27;;;;;;;2.67;2.03;;;;;;;;;;4975585;28;20174;-80
2022/09/26 13:56:13;;;;;;;2.60;1.83;;;;;;;;;;4975963;28;20234;-80
2022/09/26 13:58:39;;;;;;;2.07;1.87;;;;;;;;;;4975629;28;20200;-80
2022/09/26 14:01:25;;;;;;;2.93;2.10;;;;;;;;;;4975504;28;20259;-80
2022/09/26 14:04:10;;;;;;;1.77;1.53;;;;;;;;;;4975484;28;20195;-80
2022/09/26 14:06:37;;;;;;;2.63;1.70;;;;;;;;;;4975274;28;20238;-80
2022/09/26 14:09:26;;;;;;;2.27;1.80;;;;;;;;;;4975116;28;20263;-80
2022/09/26 14:12:12;;;;;;;5.67;2.13;;;;;;;;;;4975419;28;20168;-80
2022/09/26 14:14:42;;;;;;;1.70;1.60;;;;;;;;;;4975240;28;20661;-80
2022/09/26 14:17:31;;;;;;;2.43;1.70;;;;;;;;;;4975380;28;20177;-80
2022/09/26 14:19:59;;;;;;;2.37;1.60;;;;;;;;;;4948182;28;20215;-80
2022/09/26 14:22:25;;;;;;;2.43;1.60;;;;;;;;;;4959035;28;20184;-80
2022/09/26 14:24:51;;;;;;;2.73;1.53;;;;;;;;;;4975233;28;20242;-80
2022/09/26 14:27:17;;;;;;;1.70;1.50;;;;;;;;;;4976224;28;20671;-80
2022/09/26 14:29:50;;;;;;;3.13;1.80;;;;;;;;;;4974865;28;20239;-80
2022/09/26 14:32:22;;;;;;;3.30;1.70;;;;;;;;;;4974735;28;20558;-80
2022/09/26 14:34:48;;;;;;;1.80;1.70;;;;;;;;;;4958732;28;20271;-80
2022/09/26 14:37:23;;;;;;;2.30;1.80;;;;;;;;;;4974428;28;20263;-80
2022/09/26 14:39:58;;;;;;;1.50;1.40;;;;;;;;;;4974791;28;20227;-80
2022/09/26 14:42:25;;;;;;;3.53;1.77;;;;;;;;;;4974814;28;20180;-80
2022/09/26 14:44:56;;;;;;;1.80;1.70;;;;;;;;;;4974920;28;20184;-80
2022/09/26 14:47:23;;;;;;;3.13;2.10;;;;;;;;;;4959032;28;20294;-80
2022/09/26 14:50:19;;;;;;;4.20;2.30;;;;;;;;;;4975336;28;20196;-80
2022/09/26 14:52:56;;;;;;;2.03;1.60;;;;;;;;;;4962973;28;20184;-80
2022/09/26 14:55:22;;;;;;;2.47;1.83;;;;;;;;;;4975223;28;20246;-80
2022/09/26 14:57:48;;;;;;;2.40;2.13;;;;;;;;;;4975400;28;20211;-81
2022/09/26 15:00:39;;;;;;;5.67;4.57;;;;;;;;;;4959036;28;20200;-81
2022/09/26 15:03:07;;;;;;;3.40;2.27;;;;;;;;;;4975607;28;20196;-81
2022/09/26 15:05:33;;;;;;;4.60;2.83;;;;;;;;;;4959991;28;20215;-81
2022/09/26 15:08:00;;;;;;;3.40;1.90;;;;;;;;;;4975406;28;20205;-81
2022/09/26 15:10:40;;;;;;;3.33;2.30;;;;;;;;;;4975087;28;20212;-81
2022/09/26 15:13:18;;;;;;;3.20;1.57;;;;;;;;;;4975177;28;20172;-81
2022/09/26 15:15:50;;;;;;;2.13;1.33;;;;;;;;;;4974916;28;20659;-81
2022/09/26 15:18:22;;;;;;;1.83;1.40;;;;;;;;;;4974619;28;20196;-81
2022/09/26 15:20:50;;;;;;;2.53;1.30;;;;;;;;;;4974810;28;20177;-81